Terminal Aerodrome Forecast
Issued by NWS Cleveland, OH

Home | Current Version | Previous Version | Text Only | Print | Product List | Glossary On
Versions: 1 2 3 4 5 6 7 8 9 10 11 12
000
FTUS41 KCLE 242335
TAFERI
TAF
KERI 242335Z 2500/2524 19012G20KT P6SM SCT045 BKN200
      TEMPO 2504/2507 5SM -SHRA OVC035
     FM250700 21010G20KT P6SM BKN035 BKN100
     FM251000 21010KT 6SM BR SCT020
     FM251500 21010KT P6SM BKN020
     FM251700 21010G20KT P6SM BKN040
     FM252100 23010G30KT 3SM TSRA OVC025CB=

USA.gov is the U.S. government's official web portal to all federal, state and local government web resources and services.